Terminal Aerodrome Forecast
Issued by NWS

Home | Current Version | Previous Version | Text Only | Print | Product List | Glossary On
Versions: 1 2 3 4 5 6 7 8 9 10 11 12 13 14 15 16 17 18
000
FTUS43 KBIS 261900 AAA
TAFMOT
TAF AMD
KMOT 261932Z 2620/2718 12005KT P6SM SCT040
     FM270000 10005KT P6SM SCT040 BKN200
     FM271000 14010KT 4SM -SN BR BKN015 OVC025
      TEMPO 2712/2716 1SM -SN BR SCT006 OVC010=

USA.gov is the U.S. government's official web portal to all federal, state and local government web resources and services.